Time;durP1;ratioP1;P1;durP2;ratioP2;P2;SDS_P1;SDS_P2;PMS_P1;PMS_P2;Temp;Humidity;BMP_temperature;BMP_pressure;BME280_temperature;BME280_humidity;BME280_pressure;Samples;Min_cycle;Max_cycle;Signal;HPM_P1;HPM_P2
2022/03/14 00:00:07;;;;;;;;;;;3.60;44.90;;;;;;5046724;28;19921;-66
2022/03/14 00:02:34;;;;;;;;;;;3.50;45.20;;;;;;5063954;28;20219;-65
2022/03/14 00:05:03;;;;;;;;;;;3.50;45.70;;;;;;5064277;28;19916;-66
2022/03/14 00:07:30;;;;;;;;;;;3.60;46.20;;;;;;5064082;28;20061;-66
2022/03/14 00:09:56;;;;;;;;;;;3.50;45.90;;;;;;5064121;28;19916;-66
2022/03/14 00:12:25;;;;;;;;;;;3.50;45.10;;;;;;5063619;28;19944;-67
2022/03/14 00:14:55;;;;;;;;;;;3.50;44.80;;;;;;5063485;28;20158;-66
2022/03/14 00:17:23;;;;;;;;;;;3.50;45.20;;;;;;5063971;28;19971;-66
2022/03/14 00:19:50;;;;;;;;;;;3.50;44.70;;;;;;5064102;28;20215;-66
2022/03/14 00:22:21;;;;;;;;;;;3.50;48.30;;;;;;5063730;28;19915;-66
2022/03/14 00:24:47;;;;;;;;;;;3.50;50.20;;;;;;5063801;28;19916;-65
2022/03/14 00:27:12;;;;;;;;;;;3.50;51.90;;;;;;5063642;28;19953;-65
2022/03/14 00:29:38;;;;;;;;;;;3.50;53.20;;;;;;5063780;28;20103;-66
2022/03/14 00:32:04;;;;;;;;;;;3.50;54.20;;;;;;5063533;28;19909;-66
2022/03/14 00:34:30;;;;;;;;;;;3.50;54.00;;;;;;5063740;28;20294;-66
2022/03/14 00:36:55;;;;;;;;;;;3.30;53.80;;;;;;5045988;28;19946;-65
2022/03/14 00:39:21;;;;;;;;;;;3.20;52.60;;;;;;5063356;28;19913;-66
2022/03/14 00:41:47;;;;;;;;;;;3.20;52.50;;;;;;5062333;28;19909;-66
2022/03/14 00:44:15;;;;;;;;;;;3.10;52.10;;;;;;5063597;28;20207;-66
2022/03/14 00:46:43;;;;;;;;;;;3.20;49.70;;;;;;5063566;28;19933;-66
2022/03/14 00:49:09;;;;;;;;;;;3.20;47.90;;;;;;5063384;28;20116;-66
2022/03/14 00:51:35;;;;;;;;;;;3.20;47.50;;;;;;5063038;28;19917;-65
2022/03/14 00:54:02;;;;;;;;;;;3.20;47.50;;;;;;5063491;28;19931;-65
2022/03/14 00:56:28;;;;;;;;;;;3.10;49.00;;;;;;5063076;28;19915;-66
2022/03/14 00:58:54;;;;;;;;;;;3.00;55.50;;;;;;5063199;28;20230;-66
2022/03/14 01:01:21;;;;;;;;;;;3.00;56.80;;;;;;5063062;28;19917;-65
2022/03/14 01:03:46;;;;;;;;;;;3.00;56.70;;;;;;5063187;28;20331;-65
2022/03/14 01:06:12;;;;;;;;;;;3.00;57.50;;;;;;5063113;28;19909;-66
2022/03/14 01:08:38;;;;;;;;;;;2.90;58.90;;;;;;5063015;28;19909;-66
2022/03/14 01:11:04;;;;;;;;;;;2.80;58.30;;;;;;5062651;28;19976;-65
2022/03/14 01:13:29;;;;;;;;;;;2.70;57.90;;;;;;5062958;28;19917;-65
2022/03/14 01:15:55;;;;;;;;;;;2.70;56.50;;;;;;5062978;28;19916;-66
2022/03/14 01:18:21;;;;;;;;;;;2.60;55.40;;;;;;5062759;28;19913;-65
2022/03/14 01:20:46;;;;;;;;;;;2.60;54.80;;;;;;5062612;28;19909;-65
2022/03/14 01:23:12;;;;;;;;;;;2.50;54.90;;;;;;5062841;28;19963;-65
2022/03/14 01:25:38;;;;;;;;;;;2.40;53.90;;;;;;5062377;28;19940;-66
2022/03/14 01:28:04;;;;;;;;;;;2.40;54.00;;;;;;5062165;28;19977;-65
2022/03/14 01:30:30;;;;;;;;;;;2.30;53.90;;;;;;5062633;28;20026;-65
2022/03/14 01:32:56;;;;;;;;;;;2.30;54.10;;;;;;5062587;28;19913;-65
2022/03/14 01:35:21;;;;;;;;;;;2.20;53.80;;;;;;5062613;28;19909;-66
2022/03/14 01:37:50;;;;;;;;;;;2.20;53.90;;;;;;5062397;28;19917;-66
2022/03/14 01:40:17;;;;;;;;;;;2.20;54.10;;;;;;5062726;28;19909;-66
2022/03/14 01:42:43;;;;;;;;;;;2.20;55.00;;;;;;5061447;28;19908;-66
2022/03/14 01:45:09;;;;;;;;;;;2.20;54.60;;;;;;5062655;28;19909;-65
2022/03/14 01:47:36;;;;;;;;;;;2.10;54.40;;;;;;5062471;28;19917;-65
2022/03/14 01:50:02;;;;;;;;;;;2.00;54.40;;;;;;5062503;28;19940;-66
2022/03/14 01:52:28;;;;;;;;;;;2.00;53.50;;;;;;5062336;28;19955;-66
2022/03/14 01:54:53;;;;;;;;;;;1.90;53.70;;;;;;5062400;28;20218;-65
2022/03/14 01:57:19;;;;;;;;;;;1.90;53.40;;;;;;5061966;28;19916;-66
2022/03/14 01:59:45;;;;;;;;;;;1.90;56.40;;;;;;5062309;28;19921;-65
2022/03/14 02:02:11;;;;;;;;;;;1.80;60.20;;;;;;5027911;28;19909;-65
2022/03/14 02:04:36;;;;;;;;;;;1.70;60.50;;;;;;5043627;28;19948;-65
2022/03/14 02:07:04;;;;;;;;;;;1.80;59.20;;;;;;5062347;28;19916;-65
2022/03/14 02:09:29;;;;;;;;;;;1.70;57.60;;;;;;5044739;28;19909;-66
2022/03/14 02:11:56;;;;;;;;;;;1.70;56.70;;;;;;5062042;28;20215;-66
2022/03/14 02:14:22;;;;;;;;;;;1.70;54.10;;;;;;5062149;28;19915;-66
2022/03/14 02:16:48;;;;;;;;;;;1.70;53.30;;;;;;5062169;28;19983;-66
2022/03/14 02:19:14;;;;;;;;;;;1.70;53.60;;;;;;5061681;28;20258;-66
2022/03/14 02:21:40;;;;;;;;;;;1.80;53.80;;;;;;5081705;23;19920;-75
2022/03/14 02:24:08;;;;;;;;;;;1.70;53.60;;;;;;5040697;28;19915;-77
2022/03/14 02:26:40;;;;;;;;;;;1.70;53.10;;;;;;5061669;28;19917;-76
2022/03/14 02:29:09;;;;;;;;;;;1.80;57.10;;;;;;5045143;28;20207;-75
2022/03/14 02:31:36;;;;;;;;;;;1.80;58.30;;;;;;5061270;28;19916;-75
2022/03/14 02:34:08;;;;;;;;;;;1.80;61.70;;;;;;5061644;28;20281;-75
2022/03/14 02:36:39;;;;;;;;;;;1.90;63.50;;;;;;5062431;28;20219;-75
2022/03/14 02:39:07;;;;;;;;;;;1.80;65.70;;;;;;5032879;28;19926;-75
2022/03/14 02:41:33;;;;;;;;;;;1.70;67.30;;;;;;5048432;28;19992;-77
2022/03/14 02:44:00;;;;;;;;;;;1.70;67.30;;;;;;5048831;28;20085;-77
2022/03/14 02:46:26;;;;;;;;;;;1.60;68.40;;;;;;5048709;28;20196;-76
2022/03/14 02:48:52;;;;;;;;;;;1.60;70.00;;;;;;5048773;28;19916;-76
2022/03/14 02:51:18;;;;;;;;;;;1.50;71.00;;;;;;5064628;28;20140;-75
2022/03/14 02:53:44;;;;;;;;;;;1.40;71.20;;;;;;5066202;28;20227;-76
2022/03/14 02:56:09;;;;;;;;;;;1.40;71.10;;;;;;5065077;28;19909;-76
2022/03/14 02:58:38;;;;;;;;;;;1.50;71.20;;;;;;5064992;28;19917;-76
2022/03/14 03:01:04;;;;;;;;;;;1.50;71.20;;;;;;5048560;28;19916;-78
2022/03/14 03:03:30;;;;;;;;;;;1.60;70.40;;;;;;5032113;28;19916;-78
2022/03/14 03:05:56;;;;;;;;;;;1.60;69.80;;;;;;5048629;28;19909;-78
2022/03/14 03:08:22;;;;;;;;;;;1.50;70.00;;;;;;5065118;28;19998;-78
2022/03/14 03:10:49;;;;;;;;;;;1.50;70.20;;;;;;5065839;28;19966;-78
2022/03/14 03:13:15;;;;;;;;;;;1.50;70.80;;;;;;5064878;28;19976;-78
2022/03/14 03:15:41;;;;;;;;;;;1.50;70.20;;;;;;5048173;28;19909;-73
2022/03/14 03:18:08;;;;;;;;;;;1.50;70.10;;;;;;5064710;28;19919;-75
2022/03/14 03:20:34;;;;;;;;;;;1.60;69.60;;;;;;5031327;28;19908;-74
2022/03/14 03:23:01;;;;;;;;;;;1.60;69.50;;;;;;5064193;28;20207;-73
2022/03/14 03:25:27;;;;;;;;;;;1.60;69.80;;;;;;5047959;28;20222;-77
2022/03/14 03:27:53;;;;;;;;;;;1.50;70.30;;;;;;5047998;28;19909;-76
2022/03/14 03:30:19;;;;;;;;;;;1.40;70.30;;;;;;5047915;28;19940;-76
2022/03/14 03:32:44;;;;;;;;;;;1.40;70.30;;;;;;5047580;28;20254;-76
2022/03/14 03:35:10;;;;;;;;;;;1.40;70.00;;;;;;5064371;28;20231;-76
2022/03/14 03:37:36;;;;;;;;;;;1.50;69.70;;;;;;5065130;28;19916;-76
2022/03/14 03:40:02;;;;;;;;;;;1.40;70.40;;;;;;5047651;28;19931;-74
2022/03/14 03:42:28;;;;;;;;;;;1.40;70.90;;;;;;5046324;28;20255;-75
2022/03/14 03:44:53;;;;;;;;;;;1.40;70.60;;;;;;5064212;28;19915;-75
2022/03/14 03:47:19;;;;;;;;;;;1.40;70.80;;;;;;5064084;28;19915;-75
2022/03/14 03:49:45;;;;;;;;;;;1.40;70.60;;;;;;5046249;28;20101;-74
2022/03/14 03:52:11;;;;;;;;;;;1.50;70.90;;;;;;5047023;28;20234;-75
2022/03/14 03:54:37;;;;;;;;;;;1.50;70.80;;;;;;5064068;28;19908;-75
2022/03/14 03:57:02;;;;;;;;;;;1.60;70.70;;;;;;5030547;28;19954;-75
2022/03/14 03:59:28;;;;;;;;;;;1.60;70.20;;;;;;5064953;28;19913;-76
2022/03/14 04:01:54;;;;;;;;;;;1.60;70.20;;;;;;5063697;28;20215;-75
2022/03/14 04:04:20;;;;;;;;;;;1.70;70.40;;;;;;5063748;28;19971;-75
2022/03/14 04:06:47;;;;;;;;;;;1.70;70.40;;;;;;5063051;28;19947;-75
2022/03/14 04:09:13;;;;;;;;;;;1.70;71.10;;;;;;5063754;28;20158;-75
2022/03/14 04:11:41;;;;;;;;;;;1.90;70.80;;;;;;5064758;28;19936;-75
2022/03/14 04:14:09;;;;;;;;;;;2.10;69.70;;;;;;5063511;28;20223;-75
2022/03/14 04:16:36;;;;;;;;;;;2.00;69.90;;;;;;5064818;28;19909;-75
2022/03/14 04:19:02;;;;;;;;;;;2.10;70.40;;;;;;5063679;28;19913;-75
2022/03/14 04:21:28;;;;;;;;;;;2.20;70.90;;;;;;5064318;28;19912;-75
2022/03/14 04:23:54;;;;;;;;;;;2.20;70.90;;;;;;5063747;28;20278;-75
2022/03/14 04:26:19;;;;;;;;;;;2.30;71.00;;;;;;5064673;28;19940;-74
2022/03/14 04:28:45;;;;;;;;;;;2.40;70.40;;;;;;5064467;28;19909;-75
2022/03/14 04:31:11;;;;;;;;;;;2.30;70.80;;;;;;5046546;28;19908;-74
2022/03/14 04:33:36;;;;;;;;;;;2.20;71.00;;;;;;5064613;28;19916;-76
2022/03/14 04:36:04;;;;;;;;;;;2.30;70.50;;;;;;5066003;28;19971;-76
2022/03/14 04:38:30;;;;;;;;;;;2.40;69.50;;;;;;5063642;28;19916;-72
2022/03/14 04:40:56;;;;;;;;;;;2.50;69.40;;;;;;5063967;28;19966;-72
2022/03/14 04:43:22;;;;;;;;;;;2.40;69.70;;;;;;5063029;28;19909;-73
2022/03/14 04:45:48;;;;;;;;;;;2.30;69.90;;;;;;5064360;28;19955;-73
2022/03/14 04:48:14;;;;;;;;;;;2.30;69.50;;;;;;5064047;28;19975;-73
2022/03/14 04:50:41;;;;;;;;;;;2.40;67.50;;;;;;5063832;28;19909;-72
2022/03/14 04:53:07;;;;;;;;;;;2.30;67.90;;;;;;5062953;28;19916;-72
2022/03/14 04:55:36;;;;;;;;;;;2.30;67.90;;;;;;5062893;28;19909;-72
2022/03/14 04:58:03;;;;;;;;;;;2.40;67.20;;;;;;5063629;28;19990;-75
2022/03/14 05:00:29;;;;;;;;;;;2.40;66.30;;;;;;5062419;28;19916;-76
2022/03/14 05:03:05;;;;;;;;;;;2.40;67.20;;;;;;5045959;28;19931;-75
2022/03/14 05:05:31;;;;;;;;;;;2.50;67.30;;;;;;5062694;28;19916;-76
2022/03/14 05:07:57;;;;;;;;;;;2.50;66.90;;;;;;5062868;28;19909;-76
2022/03/14 05:10:23;;;;;;;;;;;2.40;67.50;;;;;;5062685;28;19908;-75
2022/03/14 05:12:49;;;;;;;;;;;2.50;66.60;;;;;;5062307;28;20211;-75
2022/03/14 05:15:16;;;;;;;;;;;2.60;65.50;;;;;;5063736;28;19908;-76
2022/03/14 05:17:42;;;;;;;;;;;2.70;64.10;;;;;;5063565;28;19913;-76
2022/03/14 05:20:09;;;;;;;;;;;2.60;64.30;;;;;;5045870;28;19909;-76
2022/03/14 05:22:42;;;;;;;;;;;2.80;64.00;;;;;;5062040;28;19912;-76
2022/03/14 05:25:08;;;;;;;;;;;2.80;64.10;;;;;;5062331;28;19972;-77
2022/03/14 05:27:34;;;;;;;;;;;2.70;64.30;;;;;;5063205;28;19909;-78
2022/03/14 05:30:00;;;;;;;;;;;2.70;64.10;;;;;;5062233;28;19947;-78
2022/03/14 05:32:26;;;;;;;;;;;2.60;64.10;;;;;;5060503;28;19932;-76
2022/03/14 05:34:51;;;;;;;;;;;2.70;62.70;;;;;;5061846;28;19970;-73
2022/03/14 05:37:19;;;;;;;;;;;2.80;60.90;;;;;;5061479;28;19913;-74
2022/03/14 05:39:45;;;;;;;;;;;2.90;59.40;;;;;;5063164;28;19909;-73
2022/03/14 05:42:10;;;;;;;;;;;2.90;60.60;;;;;;5060854;28;19916;-74
2022/03/14 05:44:36;;;;;;;;;;;2.90;58.70;;;;;;5061914;28;19913;-74
2022/03/14 05:47:02;;;;;;;;;;;2.90;59.40;;;;;;5062000;28;19924;-74
2022/03/14 05:49:28;;;;;;;;;;;3.00;59.50;;;;;;5063028;28;19908;-74
2022/03/14 05:51:54;;;;;;;;;;;2.90;60.80;;;;;;5060851;28;19916;-76
2022/03/14 05:54:19;;;;;;;;;;;2.90;60.40;;;;;;5063072;28;20155;-77
2022/03/14 05:56:46;;;;;;;;;;;3.00;60.00;;;;;;5062080;28;19971;-76
2022/03/14 05:59:12;;;;;;;;;;;3.00;59.30;;;;;;5061929;28;20139;-74
2022/03/14 06:01:38;;;;;;;;;;;3.10;59.30;;;;;;5061523;28;19981;-73
2022/03/14 06:04:04;;;;;;;;;;;3.20;60.20;;;;;;5045156;28;19912;-73
2022/03/14 06:06:30;;;;;;;;;;;3.10;59.30;;;;;;5062791;28;19946;-75
2022/03/14 06:08:56;;;;;;;;;;;3.10;61.20;;;;;;5095245;28;19924;-76
2022/03/14 06:11:22;;;;;;;;;;;3.10;64.00;;;;;;5060801;28;19996;-75
2022/03/14 06:13:48;;;;;;;;;;;3.00;65.40;;;;;;5063827;28;19917;-76
2022/03/14 06:16:13;;;;;;;;;;;3.00;65.80;;;;;;5066727;28;19909;-75
2022/03/14 06:18:39;;;;;;;;;;;3.00;65.40;;;;;;5060750;28;19916;-75
2022/03/14 06:21:05;;;;;;;;;;;3.10;65.50;;;;;;5064953;28;20306;-74
2022/03/14 06:23:31;;;;;;;;;;;3.00;64.80;;;;;;5066642;28;19909;-76
2022/03/14 06:25:57;;;;;;;;;;;3.00;65.80;;;;;;5065043;28;20298;-76
2022/03/14 06:28:23;;;;;;;;;;;3.10;66.40;;;;;;5066358;28;19916;-76
2022/03/14 06:30:48;;;;;;;;;;;3.20;67.40;;;;;;5065030;28;19910;-76
2022/03/14 06:33:14;;;;;;;;;;;3.10;68.50;;;;;;5061476;28;19913;-76
2022/03/14 06:35:40;;;;;;;;;;;3.20;69.00;;;;;;5045385;28;19919;-74
2022/03/14 06:38:07;;;;;;;;;;;3.30;69.30;;;;;;5063068;28;20122;-70
2022/03/14 06:40:32;;;;;;;;;;;3.40;70.50;;;;;;5057148;28;19912;-71
2022/03/14 06:42:59;;;;;;;;;;;3.30;71.50;;;;;;5059119;28;20265;-71
2022/03/14 06:45:24;;;;;;;;;;;3.40;72.10;;;;;;5065483;28;19966;-72
2022/03/14 06:47:54;;;;;;;;;;;3.40;73.50;;;;;;5047865;28;19944;-72
2022/03/14 06:50:21;;;;;;;;;;;3.40;74.70;;;;;;5065090;28;19909;-72
2022/03/14 06:52:47;;;;;;;;;;;3.40;75.80;;;;;;5065670;28;19947;-72
2022/03/14 06:55:13;;;;;;;;;;;3.50;74.80;;;;;;5065022;28;20097;-73
2022/03/14 06:57:39;;;;;;;;;;;3.70;76.30;;;;;;5048057;28;19936;-72
2022/03/14 07:00:05;;;;;;;;;;;3.70;77.50;;;;;;5064018;28;20195;-72
2022/03/14 07:02:31;;;;;;;;;;;3.70;77.20;;;;;;5065696;28;19946;-73
2022/03/14 07:04:57;;;;;;;;;;;3.60;81.90;;;;;;5065920;28;19936;-73
2022/03/14 07:07:22;;;;;;;;;;;3.80;79.30;;;;;;5065931;28;19916;-72
2022/03/14 07:09:48;;;;;;;;;;;3.70;79.10;;;;;;5065148;28;19980;-73
2022/03/14 07:12:14;;;;;;;;;;;3.70;81.90;;;;;;5065273;28;19939;-72
2022/03/14 07:14:40;;;;;;;;;;;3.70;84.30;;;;;;5048114;28;19909;-72
2022/03/14 07:17:06;;;;;;;;;;;3.70;84.20;;;;;;5065683;28;19909;-73
2022/03/14 07:19:31;;;;;;;;;;;3.70;85.10;;;;;;5064700;28;19909;-72
2022/03/14 07:21:57;;;;;;;;;;;3.80;86.40;;;;;;5064116;28;19978;-72
2022/03/14 07:24:23;;;;;;;;;;;3.80;87.10;;;;;;5065283;28;19917;-72
2022/03/14 07:26:49;;;;;;;;;;;3.70;87.20;;;;;;5065531;28;20199;-73
2022/03/14 07:29:15;;;;;;;;;;;3.80;85.90;;;;;;5065213;28;20156;-72
2022/03/14 07:31:41;;;;;;;;;;;3.70;87.70;;;;;;5065467;28;19948;-72
2022/03/14 07:34:07;;;;;;;;;;;3.80;88.90;;;;;;5064320;28;19916;-72
2022/03/14 07:36:34;;;;;;;;;;;3.80;90.10;;;;;;5064262;28;19909;-74
2022/03/14 07:39:03;;;;;;;;;;;3.90;89.40;;;;;;5047737;28;20104;-74
2022/03/14 07:41:29;;;;;;;;;;;3.90;90.80;;;;;;5065171;28;19916;-74
2022/03/14 07:43:55;;;;;;;;;;;3.90;90.70;;;;;;5064433;28;20204;-74
2022/03/14 07:46:21;;;;;;;;;;;4.10;90.90;;;;;;5064328;28;20208;-74
2022/03/14 07:48:46;;;;;;;;;;;4.20;91.10;;;;;;5065431;28;19975;-74
2022/03/14 07:51:12;;;;;;;;;;;4.30;91.20;;;;;;5064602;28;20070;-74
2022/03/14 07:53:38;;;;;;;;;;;4.30;91.20;;;;;;5065155;28;19917;-74
2022/03/14 07:56:04;;;;;;;;;;;4.40;91.30;;;;;;5064831;28;20128;-74
2022/03/14 07:58:29;;;;;;;;;;;4.40;91.60;;;;;;5064638;28;19913;-74
2022/03/14 08:00:55;;;;;;;;;;;4.50;91.50;;;;;;5063385;28;20227;-74
2022/03/14 08:03:22;;;;;;;;;;;4.50;91.60;;;;;;5064903;28;19908;-74
2022/03/14 08:05:58;;;;;;;;;;;4.50;91.80;;;;;;5064838;28;19909;-74
2022/03/14 08:08:25;;;;;;;;;;;4.40;92.50;;;;;;5064987;28;19909;-74
2022/03/14 08:10:50;;;;;;;;;;;4.50;92.60;;;;;;5062489;28;19943;-73
2022/03/14 08:13:16;;;;;;;;;;;4.40;92.80;;;;;;5064694;28;19909;-74
2022/03/14 08:15:42;;;;;;;;;;;4.50;92.10;;;;;;5064737;28;19916;-74
2022/03/14 08:18:08;;;;;;;;;;;4.60;91.40;;;;;;5064597;28;19983;-74
2022/03/14 08:20:34;;;;;;;;;;;4.60;91.30;;;;;;5063124;28;19916;-74
2022/03/14 08:23:00;;;;;;;;;;;4.70;91.40;;;;;;5093128;22;19991;-64
2022/03/14 08:25:26;;;;;;;;;;;4.80;91.50;;;;;;5084087;28;19954;-64
2022/03/14 08:27:52;;;;;;;;;;;4.70;91.80;;;;;;5083357;28;19909;-65
2022/03/14 08:30:21;;;;;;;;;;;4.60;92.60;;;;;;5083423;28;19928;-65
2022/03/14 08:32:47;;;;;;;;;;;4.80;92.90;;;;;;5082945;28;19944;-65
2022/03/14 08:35:13;;;;;;;;;;;4.80;93.20;;;;;;5082514;28;19931;-65
2022/03/14 08:37:40;;;;;;;;;;;4.90;93.30;;;;;;5082823;28;19913;-65
2022/03/14 08:40:09;;;;;;;;;;;5.00;93.60;;;;;;5083017;28;20007;-65
2022/03/14 08:42:35;;;;;;;;;;;5.10;93.70;;;;;;5082631;28;20249;-65
2022/03/14 08:45:01;;;;;;;;;;;5.30;93.60;;;;;;5064807;28;19984;-65
2022/03/14 08:47:27;;;;;;;;;;;5.40;93.20;;;;;;5062972;28;19970;-65
2022/03/14 08:49:52;;;;;;;;;;;5.50;93.50;;;;;;5063003;28;19919;-65
2022/03/14 08:52:18;;;;;;;;;;;5.70;93.40;;;;;;5062274;28;19909;-66
2022/03/14 08:54:44;;;;;;;;;;;5.90;93.10;;;;;;5045064;28;19915;-66
2022/03/14 08:57:09;;;;;;;;;;;5.90;93.00;;;;;;5062969;28;19908;-65
2022/03/14 08:59:35;;;;;;;;;;;6.10;93.10;;;;;;5063006;28;19909;-66
2022/03/14 09:02:01;;;;;;;;;;;6.00;93.40;;;;;;5062505;28;19908;-66
2022/03/14 09:04:27;;;;;;;;;;;6.00;93.60;;;;;;5063008;28;19981;-66
2022/03/14 09:06:53;;;;;;;;;;;6.30;93.20;;;;;;5062436;28;19908;-65
2022/03/14 09:09:19;;;;;;;;;;;6.50;93.00;;;;;;5062912;28;19984;-65
2022/03/14 09:11:45;;;;;;;;;;;6.90;92.50;;;;;;5062537;28;19916;-65
2022/03/14 09:14:10;;;;;;;;;;;7.00;92.40;;;;;;5062737;28;20208;-66
2022/03/14 09:16:37;;;;;;;;;;;7.20;92.20;;;;;;5062920;28;19920;-65
2022/03/14 09:19:03;;;;;;;;;;;7.40;92.10;;;;;;5062218;28;19963;-65
2022/03/14 09:21:29;;;;;;;;;;;7.50;92.20;;;;;;5061625;28;19913;-65
2022/03/14 09:23:56;;;;;;;;;;;7.70;92.40;;;;;;5062370;28;19909;-65
2022/03/14 09:26:22;;;;;;;;;;;7.70;92.10;;;;;;5062374;28;19950;-64
2022/03/14 09:28:49;;;;;;;;;;;7.80;92.20;;;;;;5062362;28;19991;-65
2022/03/14 09:31:15;;;;;;;;;;;7.70;93.00;;;;;;5061818;28;19948;-65
2022/03/14 09:33:41;;;;;;;;;;;7.60;93.30;;;;;;5062253;28;19934;-65
2022/03/14 09:36:07;;;;;;;;;;;7.80;93.60;;;;;;5061999;28;20060;-65
2022/03/14 09:38:33;;;;;;;;;;;7.90;93.30;;;;;;5044280;28;19944;-65
2022/03/14 09:41:04;;;;;;;;;;;8.20;93.60;;;;;;5061708;28;19909;-64
2022/03/14 09:43:35;;;;;;;;;;;8.20;93.80;;;;;;5061582;28;19928;-65
2022/03/14 09:46:01;;;;;;;;;;;8.40;94.10;;;;;;5044363;28;19908;-65
2022/03/14 09:48:27;;;;;;;;;;;8.40;94.10;;;;;;5060988;28;20210;-64
2022/03/14 09:50:53;;;;;;;;;;;8.60;94.00;;;;;;5061324;28;19988;-64
2022/03/14 09:53:18;;;;;;;;;;;8.80;93.80;;;;;;5061332;28;19966;-64
2022/03/14 09:55:46;;;;;;;;;;;9.10;93.00;;;;;;5061437;28;19909;-65
2022/03/14 09:58:16;;;;;;;;;;;9.40;91.70;;;;;;5061904;28;19919;-65
2022/03/14 10:00:44;;;;;;;;;;;9.30;91.50;;;;;;5061978;28;20216;-65
2022/03/14 10:03:10;;;;;;;;;;;9.10;91.70;;;;;;5061950;28;19909;-65
2022/03/14 10:05:36;;;;;;;;;;;8.90;91.40;;;;;;5062231;28;19908;-65
2022/03/14 10:08:02;;;;;;;;;;;8.80;92.30;;;;;;5061535;28;20249;-66
2022/03/14 10:10:28;;;;;;;;;;;8.80;92.40;;;;;;5061826;28;19909;-65
2022/03/14 10:12:55;;;;;;;;;;;8.90;92.40;;;;;;5061578;28;19954;-65
2022/03/14 10:15:21;;;;;;;;;;;9.10;92.00;;;;;;5061689;28;19909;-65
2022/03/14 10:17:47;;;;;;;;;;;9.20;91.50;;;;;;5061466;28;19913;-66
2022/03/14 10:20:15;;;;;;;;;;;9.40;91.70;;;;;;5061760;28;19916;-66
2022/03/14 10:22:41;;;;;;;;;;;9.40;91.20;;;;;;5060953;28;19920;-65
2022/03/14 10:25:10;;;;;;;;;;;9.40;91.30;;;;;;5061796;28;19908;-69
2022/03/14 10:27:37;;;;;;;;;;;9.30;91.60;;;;;;5061769;28;19913;-67
2022/03/14 10:30:04;;;;;;;;;;;9.20;92.10;;;;;;5044199;28;19913;-67
2022/03/14 10:32:30;;;;;;;;;;;9.10;92.70;;;;;;5061342;28;20116;-67
2022/03/14 10:34:58;;;;;;;;;;;8.90;92.60;;;;;;5061625;28;20324;-66
2022/03/14 10:37:28;;;;;;;;;;;9.00;92.80;;;;;;5061912;28;19913;-67
2022/03/14 10:39:58;;;;;;;;;;;9.10;92.10;;;;;;5062215;28;19947;-67
2022/03/14 10:42:23;;;;;;;;;;;9.40;91.70;;;;;;5062016;28;19916;-68
2022/03/14 10:44:49;;;;;;;;;;;9.70;90.50;;;;;;5060773;28;19909;-67
2022/03/14 10:47:15;;;;;;;;;;;10.20;90.30;;;;;;5061381;28;19963;-67
2022/03/14 10:49:43;;;;;;;;;;;10.70;88.60;;;;;;5061473;28;19931;-67
2022/03/14 10:52:10;;;;;;;;;;;10.80;86.30;;;;;;5060868;28;20199;-67
2022/03/14 10:54:38;;;;;;;;;;;10.50;86.50;;;;;;5061198;28;19909;-67
2022/03/14 10:57:16;;;;;;;;;;;10.30;87.50;;;;;;5061378;28;19909;-67
2022/03/14 10:59:46;;;;;;;;;;;10.10;88.10;;;;;;5063620;28;20199;-66
2022/03/14 11:02:17;;;;;;;;;;;10.00;89.00;;;;;;5064717;28;19927;-67
2022/03/14 11:04:49;;;;;;;;;;;9.80;89.70;;;;;;5046921;28;19916;-68
2022/03/14 11:07:15;;;;;;;;;;;9.70;90.40;;;;;;5064599;28;19928;-67
2022/03/14 11:09:48;;;;;;;;;;;9.60;90.50;;;;;;5064885;28;19947;-67
2022/03/14 11:12:19;;;;;;;;;;;9.30;91.00;;;;;;5064479;28;19952;-67
2022/03/14 11:15:04;;;;;;;;;;;9.20;91.00;;;;;;5064765;28;19909;-66
2022/03/14 11:17:34;;;;;;;;;;;9.10;92.10;;;;;;5064612;28;19984;-67
2022/03/14 11:20:00;;;;;;;;;;;9.10;92.10;;;;;;5064661;28;19916;-67
2022/03/14 11:22:27;;;;;;;;;;;9.00;92.40;;;;;;5046034;28;19917;-67
2022/03/14 11:24:58;;;;;;;;;;;9.00;92.50;;;;;;5046727;28;19908;-66
2022/03/14 11:27:32;;;;;;;;;;;9.10;92.90;;;;;;5030276;28;19909;-66
2022/03/14 11:30:08;;;;;;;;;;;9.20;92.40;;;;;;5064458;28;19908;-66
2022/03/14 11:32:36;;;;;;;;;;;9.40;92.20;;;;;;5064046;28;19915;-67
2022/03/14 11:35:02;;;;;;;;;;;9.60;91.70;;;;;;5064203;28;20146;-66
2022/03/14 11:37:30;;;;;;;;;;;9.70;91.20;;;;;;5064262;28;19919;-66
2022/03/14 11:39:56;;;;;;;;;;;9.90;91.10;;;;;;5064311;28;19970;-66
2022/03/14 11:42:22;;;;;;;;;;;10.10;90.40;;;;;;5063987;28;19912;-66
2022/03/14 11:44:48;;;;;;;;;;;10.70;88.40;;;;;;5062945;28;20027;-67
2022/03/14 11:47:14;;;;;;;;;;;12.80;84.30;;;;;;5064050;28;20042;-67
2022/03/14 11:49:39;;;;;;;;;;;14.80;76.50;;;;;;5046129;28;19917;-67
2022/03/14 11:52:19;;;;;;;;;;;15.50;67.90;;;;;;5045746;28;19915;-67
2022/03/14 11:54:58;;;;;;;;;;;14.80;68.30;;;;;;5063871;28;19931;-67
2022/03/14 11:57:41;;;;;;;;;;;14.60;70.60;;;;;;5063896;28;19939;-67
2022/03/14 12:00:21;;;;;;;;;;;14.30;70.30;;;;;;5063422;28;20285;-67
2022/03/14 12:02:52;;;;;;;;;;;14.10;70.10;;;;;;5063520;28;20250;-66
2022/03/14 12:05:35;;;;;;;;;;;13.30;73.50;;;;;;5045790;28;20032;-67
2022/03/14 12:08:22;;;;;;;;;;;12.80;75.00;;;;;;5063776;28;19916;-66
2022/03/14 12:10:47;;;;;;;;;;;12.50;75.70;;;;;;5031622;28;19909;-66
2022/03/14 12:13:25;;;;;;;;;;;12.30;77.30;;;;;;5063965;28;20179;-66
2022/03/14 12:15:51;;;;;;;;;;;12.10;78.50;;;;;;5030886;28;19919;-67
2022/03/14 12:18:26;;;;;;;;;;;12.20;77.90;;;;;;5063634;28;19913;-67
2022/03/14 12:20:53;;;;;;;;;;;12.50;77.90;;;;;;5063442;28;20140;-67
2022/03/14 12:23:22;;;;;;;;;;;15.10;72.10;;;;;;5063490;28;19917;-67
2022/03/14 12:25:48;;;;;;;;;;;18.70;58.70;;;;;;5063698;28;19909;-65
2022/03/14 12:28:33;;;;;;;;;;;22.20;45.90;;;;;;5063387;28;19909;-65
2022/03/14 12:31:12;;;;;;;;;;;24.60;39.60;;;;;;5062947;28;19915;-66
2022/03/14 12:33:39;;;;;;;;;;;25.00;36.60;;;;;;5063483;28;20346;-67
2022/03/14 12:36:34;;;;;;;;;;;26.60;36.30;;;;;;5063190;28;19909;-66
2022/03/14 12:39:09;;;;;;;;;;;28.20;32.70;;;;;;5050125;28;19936;-66
2022/03/14 12:41:44;;;;;;;;;;;27.00;32.40;;;;;;5062833;28;19908;-66
2022/03/14 12:44:19;;;;;;;;;;;24.20;34.50;;;;;;5062785;28;19909;-67
2022/03/14 12:46:46;;;;;;;;;;;21.90;38.20;;;;;;5063045;28;19912;-66
2022/03/14 12:49:11;;;;;;;;;;;20.10;41.00;;;;;;5045288;28;20199;-66
2022/03/14 12:51:38;;;;;;;;;;;19.50;42.90;;;;;;5062607;28;19915;-66
2022/03/14 12:54:04;;;;;;;;;;;20.30;42.10;;;;;;5062802;28;20116;-66
2022/03/14 12:56:30;;;;;;;;;;;19.90;41.40;;;;;;5062850;28;19943;-66
2022/03/14 12:59:09;;;;;;;;;;;18.90;41.40;;;;;;5062577;28;19920;-66
2022/03/14 13:01:37;;;;;;;;;;;18.80;42.30;;;;;;5062504;28;19912;-65
2022/03/14 13:04:17;;;;;;;;;;;17.50;43.60;;;;;;5063152;28;19967;-65
2022/03/14 13:06:48;;;;;;;;;;;18.50;44.90;;;;;;5063001;28;19909;-66
2022/03/14 13:09:16;;;;;;;;;;;18.30;43.80;;;;;;5062936;28;19931;-66
2022/03/14 13:11:42;;;;;;;;;;;17.70;44.70;;;;;;5062279;28;19931;-66
2022/03/14 13:14:15;;;;;;;;;;;17.10;47.20;;;;;;5062332;28;19928;-67
2022/03/14 13:16:41;;;;;;;;;;;16.30;47.90;;;;;;5053381;28;19940;-66
2022/03/14 13:19:18;;;;;;;;;;;15.70;49.90;;;;;;5044344;28;19913;-66
2022/03/14 13:21:44;;;;;;;;;;;15.20;50.80;;;;;;5024286;28;19913;-66
2022/03/14 13:24:09;;;;;;;;;;;15.00;51.80;;;;;;5042396;28;19932;-66
2022/03/14 13:26:40;;;;;;;;;;;16.40;50.90;;;;;;5042563;28;19909;-67
2022/03/14 13:29:06;;;;;;;;;;;19.50;44.20;;;;;;5025018;28;20011;-67
2022/03/14 13:31:39;;;;;;;;;;;22.80;37.30;;;;;;5041632;28;20255;-68
2022/03/14 13:34:07;;;;;;;;;;;25.30;33.40;;;;;;5042371;28;20378;-65
2022/03/14 13:36:43;;;;;;;;;;;25.80;31.40;;;;;;5042174;28;19913;-66
2022/03/14 13:39:10;;;;;;;;;;;23.80;33.70;;;;;;5042119;28;19917;-65
2022/03/14 13:41:36;;;;;;;;;;;23.90;34.70;;;;;;5041968;28;19914;-65
2022/03/14 13:44:03;;;;;;;;;;;22.80;35.70;;;;;;5047642;28;19916;-63
2022/03/14 13:46:51;;;;;;;;;;;20.50;39.50;;;;;;5043237;28;20224;-69
2022/03/14 13:49:20;;;;;;;;;;;19.40;42.90;;;;;;5061598;28;20218;-65
2022/03/14 13:51:56;;;;;;;;;;;18.40;45.40;;;;;;5061645;28;19980;-66
2022/03/14 13:54:26;;;;;;;;;;;17.70;46.80;;;;;;5044105;28;19977;-66
2022/03/14 13:57:13;;;;;;;;;;;18.80;45.80;;;;;;5061647;28;19979;-66
2022/03/14 13:59:44;;;;;;;;;;;19.50;42.80;;;;;;5061579;28;20112;-66
2022/03/14 14:02:14;;;;;;;;;;;20.90;40.90;;;;;;5061414;28;20175;-67
2022/03/14 14:04:42;;;;;;;;;;;20.50;38.60;;;;;;5061602;28;19909;-67
2022/03/14 14:07:27;;;;;;;;;;;22.00;37.60;;;;;;5061586;28;19939;-67
2022/03/14 14:09:54;;;;;;;;;;;21.30;37.10;;;;;;5061373;28;19947;-67
2022/03/14 14:12:23;;;;;;;;;;;19.30;39.40;;;;;;5060658;28;19974;-66
2022/03/14 14:14:52;;;;;;;;;;;18.60;40.70;;;;;;5058041;28;19909;-66
2022/03/14 14:17:18;;;;;;;;;;;17.60;41.90;;;;;;5060625;28;19927;-67
2022/03/14 14:20:09;;;;;;;;;;;18.50;41.90;;;;;;5061494;28;20164;-67
2022/03/14 14:22:36;;;;;;;;;;;20.60;37.90;;;;;;5083436;23;20238;-71
2022/03/14 14:25:05;;;;;;;;;;;22.50;34.10;;;;;;5077345;28;19908;-71
2022/03/14 14:27:31;;;;;;;;;;;22.20;33.90;;;;;;5082916;28;19909;-72